Time;durP1;ratioP1;P1;durP2;ratioP2;P2;SDS_P1;SDS_P2;PMS_P1;PMS_P2;Temp;Humidity;BMP_temperature;BMP_pressure;BME280_temperature;BME280_humidity;BME280_pressure;Samples;Min_cycle;Max_cycle;Signal;HPM_P1;HPM_P2
2021/05/05 00:00:58;;;;;;;2.70;1.43;;;9.40;99.90;;;;;;5051528;28;20258;-71
2021/05/05 00:03:24;;;;;;;2.77;1.33;;;9.40;99.90;;;;;;5051506;28;20208;-71
2021/05/05 00:05:50;;;;;;;1.33;0.80;;;9.40;99.90;;;;;;5051204;28;20204;-72
2021/05/05 00:08:16;;;;;;;0.83;0.83;;;9.40;99.90;;;;;;5051557;28;20211;-71
2021/05/05 00:10:42;;;;;;;3.73;1.30;;;9.40;99.90;;;;;;5051595;28;20219;-71
2021/05/05 00:13:09;;;;;;;1.53;0.90;;;9.40;99.90;;;;;;5051547;28;20208;-71
2021/05/05 00:15:36;;;;;;;2.87;1.03;;;9.30;99.90;;;;;;5051798;28;20587;-72
2021/05/05 00:18:02;;;;;;;1.87;1.30;;;9.40;99.90;;;;;;5051342;28;20238;-71
2021/05/05 00:20:28;;;;;;;5.57;0.90;;;9.40;99.90;;;;;;5051809;28;20295;-71
2021/05/05 00:22:54;;;;;;;1.23;0.87;;;9.30;99.90;;;;;;5051327;28;20204;-70
2021/05/05 00:25:21;;;;;;;2.87;1.20;;;9.30;99.90;;;;;;5050934;28;20677;-70
2021/05/05 00:27:48;;;;;;;1.63;1.10;;;9.30;99.90;;;;;;5050659;28;20658;-70
2021/05/05 00:30:15;;;;;;;2.07;0.87;;;9.30;99.90;;;;;;5051037;28;20220;-70
2021/05/05 00:32:42;;;;;;;1.40;0.83;;;9.20;99.90;;;;;;5051212;28;20208;-69
2021/05/05 00:35:09;;;;;;;1.53;1.10;;;9.20;99.90;;;;;;5050739;28;20224;-70
2021/05/05 00:37:36;;;;;;;1.37;1.13;;;9.20;99.90;;;;;;5051012;28;20208;-70
2021/05/05 00:40:03;;;;;;;6.10;1.10;;;9.20;99.90;;;;;;5050677;28;20686;-70
2021/05/05 00:42:29;;;;;;;2.63;1.40;;;9.10;99.90;;;;;;5050911;28;20208;-70
2021/05/05 00:44:59;;;;;;;2.83;1.13;;;9.20;99.90;;;;;;5050722;28;20204;-70
2021/05/05 00:47:26;;;;;;;3.63;1.20;;;9.10;99.90;;;;;;5050700;28;20577;-70
2021/05/05 00:49:53;;;;;;;3.23;1.23;;;9.10;99.90;;;;;;5050438;28;20678;-69
2021/05/05 00:52:19;;;;;;;2.50;1.47;;;9.10;99.90;;;;;;5050332;28;20729;-70
2021/05/05 00:54:45;;;;;;;2.33;1.30;;;9.10;99.90;;;;;;5050040;28;20211;-70
2021/05/05 00:57:12;;;;;;;1.53;1.10;;;9.00;99.90;;;;;;5050624;28;20211;-70
2021/05/05 00:59:38;;;;;;;5.17;1.27;;;9.10;99.90;;;;;;5050622;28;20204;-70
2021/05/05 01:02:05;;;;;;;1.87;1.37;;;9.10;99.90;;;;;;5050570;28;20640;-71
2021/05/05 01:04:31;;;;;;;3.70;2.30;;;9.10;99.90;;;;;;5050856;28;20204;-71
2021/05/05 01:06:58;;;;;;;2.70;1.70;;;9.10;99.90;;;;;;5050755;28;20266;-71
2021/05/05 01:09:26;;;;;;;2.40;1.43;;;9.10;99.90;;;;;;5050694;28;20208;-71
2021/05/05 01:11:53;;;;;;;2.13;1.43;;;9.10;99.90;;;;;;5050676;28;20624;-71
2021/05/05 01:14:20;;;;;;;2.97;1.67;;;9.20;99.90;;;;;;5050521;28;20215;-70
2021/05/05 01:16:46;;;;;;;2.97;1.70;;;9.20;99.90;;;;;;5049990;28;20693;-70
2021/05/05 01:19:12;;;;;;;2.57;1.40;;;9.10;99.90;;;;;;5049848;28;20267;-70
2021/05/05 01:21:39;;;;;;;3.70;1.20;;;9.10;99.90;;;;;;5050092;28;20234;-70
2021/05/05 01:24:06;;;;;;;3.03;1.77;;;9.20;99.90;;;;;;5050084;28;20207;-70
2021/05/05 01:26:33;;;;;;;2.70;1.57;;;9.10;99.90;;;;;;5049933;28;20200;-69
2021/05/05 01:29:01;;;;;;;3.13;1.83;;;9.10;99.90;;;;;;5049524;28;20720;-70
2021/05/05 01:31:28;;;;;;;4.33;2.23;;;9.10;99.90;;;;;;5049821;28;20335;-70
2021/05/05 01:33:55;;;;;;;3.80;1.43;;;9.00;99.90;;;;;;5049491;28;20235;-71
2021/05/05 01:36:23;;;;;;;1.90;1.27;;;9.00;99.90;;;;;;5050359;28;20222;-71
2021/05/05 01:38:50;;;;;;;2.93;1.73;;;9.00;99.90;;;;;;5049929;28;20204;-72
2021/05/05 01:41:18;;;;;;;3.80;1.10;;;9.00;99.90;;;;;;5050339;28;20208;-71
2021/05/05 01:43:44;;;;;;;3.53;1.17;;;8.90;99.90;;;;;;5050026;28;20208;-72
2021/05/05 01:46:11;;;;;;;2.27;1.20;;;8.90;99.90;;;;;;5049847;28;20211;-71
2021/05/05 01:48:37;;;;;;;1.80;1.10;;;8.90;99.90;;;;;;5050015;28;20204;-71
2021/05/05 01:51:04;;;;;;;1.70;1.27;;;8.90;99.90;;;;;;5049538;28;20677;-70
2021/05/05 01:53:30;;;;;;;2.03;1.10;;;8.90;99.90;;;;;;5049599;28;20685;-70
2021/05/05 01:55:57;;;;;;;3.30;1.40;;;8.90;99.90;;;;;;5049852;28;20208;-70
2021/05/05 01:58:24;;;;;;;4.70;1.30;;;8.90;99.90;;;;;;5049653;28;20236;-71
2021/05/05 02:00:50;;;;;;;2.37;1.40;;;8.90;99.90;;;;;;5049620;28;20219;-71
2021/05/05 02:03:16;;;;;;;5.27;1.47;;;9.00;99.90;;;;;;5049527;28;20404;-71
2021/05/05 02:05:42;;;;;;;2.10;1.10;;;8.90;99.90;;;;;;5048790;28;20200;-72
2021/05/05 02:08:08;;;;;;;2.80;1.20;;;8.90;99.90;;;;;;5049462;28;20291;-72
2021/05/05 02:10:34;;;;;;;2.73;1.53;;;8.90;99.90;;;;;;5049556;28;20204;-72
2021/05/05 02:13:01;;;;;;;3.47;1.30;;;8.90;99.90;;;;;;5049649;28;20200;-72
2021/05/05 02:15:27;;;;;;;1.80;1.23;;;8.90;99.90;;;;;;5049466;28;20255;-72
2021/05/05 02:17:54;;;;;;;1.33;0.73;;;8.90;99.90;;;;;;5048737;28;20745;-72
2021/05/05 02:20:23;;;;;;;2.40;1.30;;;8.90;99.90;;;;;;5049305;28;20200;-73
2021/05/05 02:22:49;;;;;;;2.80;1.20;;;9.00;99.90;;;;;;5048902;28;20693;-72
2021/05/05 02:25:16;;;;;;;2.53;1.23;;;9.00;99.90;;;;;;5049282;28;20257;-72
2021/05/05 02:27:44;;;;;;;2.00;1.10;;;9.00;99.90;;;;;;5049087;28;20226;-73
2021/05/05 02:30:13;;;;;;;1.77;1.20;;;8.90;99.90;;;;;;5049203;28;20215;-73
2021/05/05 02:32:41;;;;;;;2.60;1.00;;;8.90;99.90;;;;;;5049236;28;20250;-72
2021/05/05 02:35:09;;;;;;;3.20;1.33;;;8.90;99.90;;;;;;5048683;28;20729;-73
2021/05/05 02:37:37;;;;;;;1.97;1.30;;;8.90;99.90;;;;;;5049184;28;20219;-72
2021/05/05 02:40:04;;;;;;;2.40;1.13;;;8.80;99.90;;;;;;5048682;28;20721;-72
2021/05/05 02:42:30;;;;;;;1.30;1.00;;;8.80;99.90;;;;;;5049065;28;20216;-72
2021/05/05 02:44:56;;;;;;;2.37;1.20;;;8.70;99.90;;;;;;5048876;28;20480;-72
2021/05/05 02:47:23;;;;;;;2.87;1.30;;;8.80;99.90;;;;;;5049112;28;20200;-72
2021/05/05 02:49:49;;;;;;;2.10;1.13;;;8.70;99.90;;;;;;5048903;28;20204;-72
2021/05/05 02:52:16;;;;;;;1.30;0.90;;;8.70;99.90;;;;;;5048373;28;20709;-72
2021/05/05 02:54:43;;;;;;;1.83;1.10;;;8.60;99.90;;;;;;5048632;28;20907;-72
2021/05/05 02:57:09;;;;;;;2.17;1.03;;;8.60;99.90;;;;;;5048511;28;20204;-70
2021/05/05 02:59:35;;;;;;;1.67;1.00;;;8.60;99.90;;;;;;5048478;28;20744;-71
2021/05/05 03:02:02;;;;;;;1.87;1.20;;;8.50;99.90;;;;;;5048577;28;20203;-70
2021/05/05 03:04:29;;;;;;;2.17;1.40;;;8.50;99.90;;;;;;5049820;28;20569;-69
2021/05/05 03:06:55;;;;;;;2.10;1.27;;;8.60;99.90;;;;;;5059451;28;20196;-69
2021/05/05 03:09:25;;;;;;;1.83;0.90;;;8.50;99.90;;;;;;5054106;28;20235;-71
2021/05/05 03:11:51;;;;;;;1.57;1.17;;;8.40;99.90;;;;;;5051243;28;20223;-71
2021/05/05 03:14:17;;;;;;;2.83;1.20;;;8.40;99.90;;;;;;5059393;28;20231;-71
2021/05/05 03:16:43;;;;;;;3.60;1.20;;;8.30;99.90;;;;;;5054026;28;20218;-71
2021/05/05 03:19:09;;;;;;;2.03;1.30;;;8.30;99.90;;;;;;5055447;28;20277;-71
2021/05/05 03:21:39;;;;;;;1.37;1.00;;;8.30;99.90;;;;;;5057270;28;20195;-71
2021/05/05 03:24:07;;;;;;;2.00;1.20;;;8.30;99.90;;;;;;5065671;28;20702;-71
2021/05/05 03:26:33;;;;;;;2.33;1.37;;;8.30;99.90;;;;;;5066106;28;20226;-71
2021/05/05 03:28:59;;;;;;;0.90;0.90;;;8.40;99.90;;;;;;5065861;28;20673;-71
2021/05/05 03:31:25;;;;;;;2.63;1.17;;;8.40;99.90;;;;;;5066134;28;20281;-74
2021/05/05 03:33:52;;;;;;;3.07;2.77;;;8.40;99.90;;;;;;5066000;28;20227;-71
2021/05/05 03:36:18;;;;;;;1.83;1.00;;;8.50;99.90;;;;;;5066128;28;20207;-71
2021/05/05 03:38:45;;;;;;;1.63;1.20;;;8.40;99.90;;;;;;5065844;28;20254;-71
2021/05/05 03:41:11;;;;;;;2.27;1.43;;;8.40;99.90;;;;;;5065551;28;20223;-71
2021/05/05 03:43:37;;;;;;;4.07;1.23;;;8.40;99.90;;;;;;5065584;28;20203;-72
2021/05/05 03:46:04;;;;;;;3.57;1.53;;;8.40;99.90;;;;;;5065562;28;20892;-71
2021/05/05 03:48:30;;;;;;;2.10;1.33;;;8.40;99.90;;;;;;5066132;28;20218;-71
2021/05/05 03:50:57;;;;;;;2.70;1.13;;;8.40;99.90;;;;;;5065703;28;20227;-71
2021/05/05 03:53:24;;;;;;;4.60;1.60;;;8.40;99.90;;;;;;5066369;28;20239;-72
2021/05/05 03:55:52;;;;;;;3.27;1.30;;;8.50;99.90;;;;;;5066468;28;20219;-71
2021/05/05 03:58:20;;;;;;;2.17;1.50;;;8.50;99.90;;;;;;5064526;28;20211;-71
2021/05/05 04:00:46;;;;;;;1.43;0.90;;;8.50;99.90;;;;;;5052015;28;20203;-71
2021/05/05 04:03:12;;;;;;;1.97;1.00;;;8.50;99.90;;;;;;5067548;28;20382;-71
2021/05/05 04:05:39;;;;;;;2.70;1.33;;;8.50;99.90;;;;;;5078679;28;20256;-71
2021/05/05 04:08:05;;;;;;;3.73;1.23;;;8.50;99.90;;;;;;5076871;28;20250;-71
2021/05/05 04:10:31;;;;;;;1.30;1.17;;;8.50;99.90;;;;;;5062378;28;20208;-71
2021/05/05 04:12:58;;;;;;;2.37;1.37;;;8.50;99.90;;;;;;5065260;28;20202;-72
2021/05/05 04:15:25;;;;;;;2.37;1.20;;;8.50;99.90;;;;;;5074558;28;20241;-71
2021/05/05 04:17:51;;;;;;;1.67;1.10;;;8.50;99.90;;;;;;5075060;28;20277;-71
2021/05/05 04:20:19;;;;;;;2.13;1.10;;;8.50;99.90;;;;;;5078298;28;20215;-72
2021/05/05 04:22:46;;;;;;;2.87;1.60;;;8.50;99.90;;;;;;5078684;28;20211;-71
2021/05/05 04:25:13;;;;;;;1.10;1.00;;;8.50;99.90;;;;;;5075533;28;20669;-71
2021/05/05 04:27:39;;;;;;;3.27;1.30;;;8.50;99.90;;;;;;5077037;28;20223;-71
2021/05/05 04:30:08;;;;;;;2.93;1.30;;;8.50;99.90;;;;;;5080170;28;20192;-71
2021/05/05 04:32:34;;;;;;;1.50;1.10;;;8.50;99.90;;;;;;5076626;28;20673;-71
2021/05/05 04:35:00;;;;;;;2.10;1.07;;;8.50;99.90;;;;;;5078728;28;20218;-71
2021/05/05 04:37:26;;;;;;;1.13;1.03;;;8.50;99.90;;;;;;5079773;28;20218;-71
2021/05/05 04:39:52;;;;;;;4.33;1.40;;;8.50;99.90;;;;;;5080977;28;20194;-72
2021/05/05 04:42:19;;;;;;;2.23;1.20;;;8.50;99.90;;;;;;5080086;28;20195;-71
2021/05/05 04:44:45;;;;;;;1.50;1.10;;;8.50;99.90;;;;;;5079775;28;20199;-71
2021/05/05 04:47:12;;;;;;;1.93;1.13;;;8.50;99.90;;;;;;5080994;28;20253;-72
2021/05/05 04:49:38;;;;;;;1.23;1.00;;;8.50;99.90;;;;;;5080003;28;20264;-71
2021/05/05 04:52:04;;;;;;;0.97;0.73;;;8.50;99.90;;;;;;5079498;28;20245;-72
2021/05/05 04:54:30;;;;;;;1.30;0.90;;;8.50;99.90;;;;;;5080985;28;20203;-72
2021/05/05 04:56:57;;;;;;;1.13;1.00;;;8.50;99.90;;;;;;5079250;28;20206;-71
2021/05/05 04:59:23;;;;;;;2.53;1.10;;;8.60;99.90;;;;;;5079934;28;20391;-72
2021/05/05 05:01:50;;;;;;;1.73;1.00;;;8.60;99.90;;;;;;5080692;28;20240;-71
2021/05/05 05:04:17;;;;;;;1.20;1.10;;;8.60;99.90;;;;;;5078867;28;20199;-71
2021/05/05 05:06:43;;;;;;;2.10;0.90;;;8.60;99.90;;;;;;5079204;28;20198;-71
2021/05/05 05:09:09;;;;;;;1.33;0.90;;;8.60;99.90;;;;;;5082473;28;20665;-71
2021/05/05 05:11:35;;;;;;;1.63;1.13;;;8.60;99.90;;;;;;5080563;28;20229;-71
2021/05/05 05:14:01;;;;;;;1.40;1.17;;;8.70;99.90;;;;;;5079075;28;20984;-71
2021/05/05 05:16:27;;;;;;;3.47;1.17;;;8.70;99.90;;;;;;5073912;28;20328;-71
2021/05/05 05:18:53;;;;;;;1.33;1.07;;;8.70;99.90;;;;;;5080652;28;20218;-72
2021/05/05 05:21:23;;;;;;;0.77;0.77;;;8.70;99.90;;;;;;5079502;28;20703;-71
2021/05/05 05:23:49;;;;;;;1.87;1.00;;;8.70;99.90;;;;;;5079920;28;20687;-71
2021/05/05 05:26:15;;;;;;;2.20;1.10;;;8.70;99.90;;;;;;5081375;28;20195;-73
2021/05/05 05:28:42;;;;;;;3.87;2.07;;;8.70;99.90;;;;;;5079876;28;20692;-73
2021/05/05 05:31:08;;;;;;;3.00;1.27;;;8.80;99.90;;;;;;5062521;28;20290;-71
2021/05/05 05:33:34;;;;;;;1.80;1.37;;;8.80;99.90;;;;;;5072655;28;20199;-71
2021/05/05 05:36:00;;;;;;;1.53;1.23;;;8.80;99.90;;;;;;5059079;28;20204;-71
2021/05/05 05:38:27;;;;;;;3.70;1.20;;;8.80;99.90;;;;;;5078001;28;20196;-71
2021/05/05 05:40:53;;;;;;;2.67;1.20;;;8.80;99.90;;;;;;5075569;28;20199;-71
2021/05/05 05:43:19;;;;;;;1.37;1.20;;;8.70;99.90;;;;;;5077114;28;20230;-71
2021/05/05 05:45:45;;;;;;;3.33;1.70;;;8.60;99.90;;;;;;5077103;28;20206;-71
2021/05/05 05:48:12;;;;;;;2.23;1.03;;;8.60;99.90;;;;;;5079762;28;20206;-71
2021/05/05 05:50:38;;;;;;;4.03;1.60;;;8.70;99.90;;;;;;5075905;28;20282;-71
2021/05/05 05:53:05;;;;;;;2.47;1.70;;;8.60;99.90;;;;;;5074756;28;20255;-71
2021/05/05 05:55:33;;;;;;;2.27;1.67;;;8.60;99.90;;;;;;5068255;28;20640;-71
2021/05/05 05:58:00;;;;;;;2.20;1.77;;;8.70;99.90;;;;;;5068317;28;20203;-71
2021/05/05 06:00:26;;;;;;;2.77;1.77;;;8.70;99.90;;;;;;5050466;28;20211;-72
2021/05/05 06:02:52;;;;;;;1.50;1.40;;;8.70;99.90;;;;;;5084845;28;20203;-71
2021/05/05 06:05:18;;;;;;;1.83;1.30;;;8.70;99.90;;;;;;5074992;28;20215;-71
2021/05/05 06:07:45;;;;;;;1.67;1.20;;;8.80;99.90;;;;;;5082363;28;20668;-71
2021/05/05 06:10:12;;;;;;;1.27;1.17;;;8.70;99.90;;;;;;5074246;28;20727;-70
2021/05/05 06:12:39;;;;;;;3.63;1.50;;;8.80;99.90;;;;;;5075820;28;20230;-71
2021/05/05 06:15:10;;;;;;;4.00;1.70;;;8.80;99.90;;;;;;5074352;28;20609;-70
2021/05/05 06:17:36;;;;;;;4.00;1.40;;;8.90;99.90;;;;;;5067617;28;20227;-71
2021/05/05 06:20:04;;;;;;;1.77;1.43;;;9.00;99.90;;;;;;5074064;28;20476;-71
2021/05/05 06:22:30;;;;;;;1.60;0.90;;;9.00;99.90;;;;;;5070057;28;20249;-71
2021/05/05 06:24:58;;;;;;;1.77;1.20;;;9.10;99.90;;;;;;5073066;28;20198;-71
2021/05/05 06:27:24;;;;;;;1.53;1.30;;;9.10;99.90;;;;;;5073494;28;20203;-71
2021/05/05 06:29:53;;;;;;;1.43;1.20;;;9.10;99.90;;;;;;5079501;28;20545;-71
2021/05/05 06:32:22;;;;;;;2.73;1.60;;;9.10;99.90;;;;;;5079843;28;20231;-70
2021/05/05 06:34:48;;;;;;;3.73;1.30;;;9.20;99.90;;;;;;5076963;28;20215;-71
2021/05/05 06:37:15;;;;;;;1.93;1.13;;;9.10;99.90;;;;;;5075915;28;20569;-71
2021/05/05 06:39:41;;;;;;;3.50;1.50;;;9.20;99.90;;;;;;5067754;28;20207;-71
2021/05/05 06:42:07;;;;;;;1.40;1.07;;;9.30;99.90;;;;;;5067677;28;20617;-71
2021/05/05 06:44:33;;;;;;;1.33;1.23;;;9.20;99.90;;;;;;5068535;28;20603;-71
2021/05/05 06:47:00;;;;;;;2.40;1.13;;;9.30;99.90;;;;;;5068160;28;20215;-71
2021/05/05 06:49:28;;;;;;;1.97;1.30;;;9.30;99.90;;;;;;5068260;28;20203;-71
2021/05/05 06:51:55;;;;;;;2.00;1.30;;;9.30;99.90;;;;;;5067635;28;20238;-71
2021/05/05 06:54:21;;;;;;;1.53;1.43;;;9.30;99.90;;;;;;5057711;28;20200;-72
2021/05/05 06:56:47;;;;;;;1.77;1.67;;;9.30;99.90;;;;;;5058875;28;20195;-72
2021/05/05 06:59:14;;;;;;;2.83;1.30;;;9.30;99.90;;;;;;5050010;28;20564;-71
2021/05/05 07:01:41;;;;;;;3.13;1.40;;;9.30;99.90;;;;;;5047921;28;20204;-70
2021/05/05 07:04:09;;;;;;;1.63;1.30;;;9.20;99.90;;;;;;5047540;28;20204;-71
2021/05/05 07:06:36;;;;;;;2.63;1.60;;;9.30;99.90;;;;;;5047795;28;20219;-71
2021/05/05 07:09:03;;;;;;;3.17;1.60;;;9.20;99.90;;;;;;5047493;28;20230;-70
2021/05/05 07:11:32;;;;;;;3.23;1.50;;;9.10;99.90;;;;;;5047590;28;20227;-70
2021/05/05 07:13:58;;;;;;;3.60;1.50;;;9.20;99.90;;;;;;5047731;28;20204;-71
2021/05/05 07:16:24;;;;;;;1.93;1.60;;;9.30;99.90;;;;;;5047389;28;20224;-71
2021/05/05 07:18:50;;;;;;;1.50;1.40;;;9.40;99.90;;;;;;5047518;28;20247;-70
2021/05/05 07:21:17;;;;;;;2.03;1.30;;;9.50;99.90;;;;;;5047657;28;20216;-70
2021/05/05 07:23:43;;;;;;;2.13;1.60;;;9.50;99.90;;;;;;5047511;28;20563;-71
2021/05/05 07:26:10;;;;;;;1.97;1.60;;;9.50;99.90;;;;;;5050152;28;20257;-70
2021/05/05 07:28:36;;;;;;;2.57;1.63;;;9.50;99.90;;;;;;5067042;28;20207;-70
2021/05/05 07:31:03;;;;;;;1.90;1.63;;;9.50;99.90;;;;;;5066721;28;20249;-71
2021/05/05 07:33:29;;;;;;;2.87;1.60;;;9.50;99.90;;;;;;5067117;28;20206;-71
2021/05/05 07:35:56;;;;;;;3.67;1.83;;;9.50;99.90;;;;;;5066589;28;20208;-71
2021/05/05 07:38:39;;;;;;;1.67;1.57;;;9.60;99.90;;;;;;5066783;28;20200;-70
2021/05/05 07:46:44;;;;;;;2.10;1.73;;;9.90;99.90;;;;;;5066353;28;20560;-71
2021/05/05 07:49:16;;;;;;;1.80;1.43;;;10.10;99.90;;;;;;5066259;28;20207;-71
2021/05/05 07:51:43;;;;;;;2.20;1.40;;;10.10;99.90;;;;;;5066717;28;20231;-70
2021/05/05 07:54:18;;;;;;;1.53;1.30;;;10.10;99.90;;;;;;5060989;28;20205;-73
2021/05/05 07:56:45;;;;;;;2.97;1.70;;;10.20;99.90;;;;;;5056267;28;20203;-74
2021/05/05 07:59:12;;;;;;;1.60;1.50;;;10.20;99.90;;;;;;5057354;28;20258;-71
2021/05/05 08:01:41;;;;;;;2.37;1.57;;;10.10;99.90;;;;;;5058004;28;20282;-72
2021/05/05 08:04:12;;;;;;;3.23;1.40;;;10.00;99.90;;;;;;5078921;28;20195;-71
2021/05/05 08:06:40;;;;;;;3.17;1.60;;;9.90;99.90;;;;;;5079010;28;20191;-71
2021/05/05 08:09:06;;;;;;;2.37;1.33;;;9.90;99.90;;;;;;5079245;28;20207;-72
2021/05/05 08:11:35;;;;;;;1.67;1.17;;;9.90;99.90;;;;;;5077583;28;20223;-71
2021/05/05 08:14:04;;;;;;;2.30;1.40;;;9.90;99.90;;;;;;5081965;28;20195;-70
2021/05/05 08:16:32;;;;;;;1.63;1.43;;;10.00;99.90;;;;;;5076381;28;20199;-71
2021/05/05 08:18:58;;;;;;;1.63;1.30;;;10.20;99.90;;;;;;5086276;28;20234;-72
2021/05/05 08:21:28;;;;;;;1.77;1.50;;;10.20;99.90;;;;;;5090426;28;20264;-71
2021/05/05 08:24:28;;;;;;;2.13;1.60;;;10.30;99.90;;;;;;5090650;28;20202;-71
2021/05/05 08:26:56;;;;;;;0.90;0.90;;;10.40;99.90;;;;;;5090594;28;20263;-69
2021/05/05 08:29:22;;;;;;;3.57;1.40;;;10.40;99.90;;;;;;5086965;28;20214;-70
2021/05/05 08:31:49;;;;;;;1.40;1.13;;;10.40;99.90;;;;;;5050703;28;20273;-70
2021/05/05 08:34:15;;;;;;;1.30;1.20;;;10.50;99.90;;;;;;5073224;28;20219;-70
2021/05/05 08:36:41;;;;;;;1.20;1.10;;;10.60;99.90;;;;;;5063287;28;20204;-70
2021/05/05 08:39:07;;;;;;;7.87;1.00;;;10.70;99.90;;;;;;5057342;28;20268;-70
2021/05/05 08:41:37;;;;;;;1.50;1.40;;;10.80;99.90;;;;;;5079075;28;20470;-70
2021/05/05 08:44:07;;;;;;;1.30;1.10;;;10.70;99.90;;;;;;5080073;28;20256;-70
2021/05/05 08:46:33;;;;;;;1.20;1.20;;;10.70;99.90;;;;;;5076780;28;20209;-70
2021/05/05 08:48:59;;;;;;;1.07;1.07;;;10.60;99.90;;;;;;5080285;28;20198;-70
2021/05/05 08:51:26;;;;;;;1.20;1.20;;;10.40;99.90;;;;;;5080868;28;20219;-70
2021/05/05 08:53:52;;;;;;;1.00;1.00;;;10.50;99.90;;;;;;5078742;28;20712;-70
2021/05/05 08:56:18;;;;;;;1.63;1.10;;;10.50;99.90;;;;;;5080400;28;20199;-70
2021/05/05 08:58:44;;;;;;;1.53;0.80;;;10.50;99.90;;;;;;5080398;28;20654;-70
2021/05/05 09:01:11;;;;;;;1.87;0.90;;;10.80;99.90;;;;;;5079000;28;20553;-70
2021/05/05 09:03:39;;;;;;;1.73;0.90;;;11.00;99.90;;;;;;5080153;28;20231;-70
2021/05/05 09:06:06;;;;;;;2.40;0.67;;;11.00;99.90;;;;;;5079222;28;20214;-70
2021/05/05 09:08:34;;;;;;;0.93;0.70;;;11.20;99.90;;;;;;5073038;28;20248;-70
2021/05/05 09:11:03;;;;;;;1.20;1.10;;;11.30;99.90;;;;;;5069587;28;20195;-70
2021/05/05 09:13:47;;;;;;;0.53;0.53;;;11.30;99.90;;;;;;5080862;28;20264;-70
2021/05/05 09:16:16;;;;;;;4.50;0.80;;;11.60;99.90;;;;;;5078006;28;20657;-70
2021/05/05 09:18:56;;;;;;;0.70;0.70;;;11.70;99.90;;;;;;5079288;28;20242;-70
2021/05/05 09:21:28;;;;;;;1.33;0.90;;;11.70;99.90;;;;;;5078507;28;20265;-70
2021/05/05 09:24:14;;;;;;;1.13;0.77;;;11.70;99.90;;;;;;5075910;28;20207;-70
2021/05/05 09:26:40;;;;;;;0.90;0.90;;;11.80;99.90;;;;;;5080451;28;20657;-71
2021/05/05 09:29:06;;;;;;;1.10;1.00;;;11.70;99.90;;;;;;5070241;28;20286;-72
2021/05/05 09:31:34;;;;;;;1.77;1.30;;;11.90;99.90;;;;;;5073204;28;20223;-72
2021/05/05 09:34:02;;;;;;;1.80;1.00;;;12.00;99.90;;;;;;5074906;28;20260;-70
2021/05/05 09:36:28;;;;;;;2.33;0.97;;;12.10;99.90;;;;;;5076483;28;20204;-70
2021/05/05 09:38:55;;;;;;;1.10;1.00;;;12.10;99.90;;;;;;5080278;28;20203;-70
2021/05/05 09:41:26;;;;;;;1.30;1.00;;;12.10;99.90;;;;;;5080821;28;20199;-71
2021/05/05 09:43:53;;;;;;;0.90;0.90;;;12.00;99.90;;;;;;5073997;28;20203;-70
2021/05/05 09:46:44;;;;;;;1.07;0.97;;;12.10;99.90;;;;;;5077456;28;20345;-72
2021/05/05 09:49:18;;;;;;;0.80;0.80;;;11.70;99.90;;;;;;5078934;28;20202;-71
2021/05/05 09:51:49;;;;;;;3.50;1.33;;;11.30;99.90;;;;;;5079373;28;20227;-71
2021/05/05 09:54:33;;;;;;;1.17;0.90;;;11.20;99.90;;;;;;5081477;28;20215;-71
2021/05/05 09:57:20;;;;;;;0.77;0.77;;;11.00;99.90;;;;;;5089751;28;20199;-71
2021/05/05 10:00:00;;;;;;;0.80;0.80;;;10.70;99.90;;;;;;5083542;28;20570;-71
2021/05/05 10:02:29;;;;;;;0.87;0.83;;;10.50;99.90;;;;;;5049338;28;20654;-71
2021/05/05 10:05:05;;;;;;;0.80;0.80;;;10.60;99.90;;;;;;5049196;28;20270;-71
2021/05/05 10:07:49;;;;;;;1.87;1.10;;;10.60;99.90;;;;;;5049290;28;20223;-71
2021/05/05 10:10:16;;;;;;;2.43;1.17;;;10.70;99.90;;;;;;5049452;28;20238;-71
2021/05/05 10:12:43;;;;;;;1.10;1.10;;;10.90;99.90;;;;;;5049303;28;20262;-71
2021/05/05 10:15:11;;;;;;;0.97;0.97;;;11.00;99.90;;;;;;5048942;28;20229;-71
2021/05/05 10:17:39;;;;;;;1.33;1.20;;;11.30;99.90;;;;;;5048924;28;20329;-71
2021/05/05 10:20:06;;;;;;;1.20;1.10;;;11.70;99.90;;;;;;5049093;28;20192;-71
2021/05/05 10:22:33;;;;;;;1.37;1.20;;;11.90;99.90;;;;;;5049194;28;20682;-71
2021/05/05 10:25:01;;;;;;;1.13;1.13;;;11.90;99.90;;;;;;5048995;28;20196;-71
2021/05/05 10:27:27;;;;;;;1.50;1.40;;;11.60;99.90;;;;;;5048130;28;20232;-71
2021/05/05 10:29:55;;;;;;;1.13;1.13;;;10.80;99.90;;;;;;5049404;28;20208;-71
2021/05/05 10:32:22;;;;;;;1.00;1.00;;;10.50;99.90;;;;;;5048938;28;20231;-71
2021/05/05 10:34:51;;;;;;;1.10;1.10;;;10.40;99.90;;;;;;5048954;28;20235;-71
2021/05/05 10:37:17;;;;;;;1.47;1.37;;;10.50;99.90;;;;;;5048917;28;20215;-71
2021/05/05 10:39:44;;;;;;;1.63;0.97;;;11.10;99.90;;;;;;5048943;28;20650;-71
2021/05/05 10:42:17;;;;;;;1.23;1.10;;;11.50;99.90;;;;;;5048949;28;20624;-71
2021/05/05 10:44:50;;;;;;;1.63;0.80;;;11.60;99.90;;;;;;5049192;28;20203;-71
2021/05/05 10:47:19;;;;;;;1.03;0.83;;;11.60;99.90;;;;;;5048727;28;20576;-71
2021/05/05 10:50:12;;;;;;;0.60;0.60;;;11.80;99.90;;;;;;5048575;28;20239;-71
2021/05/05 10:53:05;;;;;;;1.90;1.10;;;11.90;99.90;;;;;;5048815;28;20227;-71
2021/05/05 10:55:39;;;;;;;0.77;0.77;;;11.70;99.90;;;;;;5048727;28;20196;-71
2021/05/05 10:58:08;;;;;;;1.27;1.20;;;11.50;99.90;;;;;;5048693;28;20313;-71
2021/05/05 11:00:57;;;;;;;1.50;1.37;;;11.30;99.90;;;;;;5048861;28;20208;-71
2021/05/05 11:03:53;;;;;;;1.10;1.10;;;11.20;99.90;;;;;;5045420;28;20211;-71
2021/05/05 11:06:44;;;;;;;0.90;0.90;;;11.30;99.90;;;;;;5041394;28;20208;-71
2021/05/05 11:09:43;;;;;;;1.70;1.00;;;11.40;99.90;;;;;;5048467;28;20247;-71
2021/05/05 11:12:39;;;;;;;1.90;1.07;;;11.70;99.90;;;;;;5048479;28;20236;-71
2021/05/05 11:15:07;;;;;;;1.10;0.90;;;11.90;99.90;;;;;;5025470;28;20340;-71
2021/05/05 11:17:34;;;;;;;0.63;0.60;;;12.00;99.90;;;;;;5043313;28;20208;-71
2021/05/05 11:20:00;;;;;;;1.03;0.70;;;12.30;99.90;;;;;;5047963;28;20204;-71
2021/05/05 11:22:49;;;;;;;1.60;0.60;;;12.60;99.90;;;;;;5048126;28;20583;-71
2021/05/05 11:25:26;;;;;;;1.47;0.40;;;12.80;99.00;;;;;;5052248;28;20230;-73
2021/05/05 11:27:54;;;;;;;2.13;0.50;;;13.00;99.70;;;;;;5048262;28;20191;-73
2021/05/05 11:30:49;;;;;;;1.27;0.70;;;13.40;99.10;;;;;;5066061;28;20191;-72
2021/05/05 11:33:16;;;;;;;2.50;0.40;;;13.00;97.50;;;;;;5078980;28;20276;-71
2021/05/05 11:35:42;;;;;;;1.50;0.50;;;12.80;97.20;;;;;;5076798;28;20596;-71
2021/05/05 11:38:20;;;;;;;3.27;0.70;;;12.80;97.30;;;;;;5079745;28;20656;-71
2021/05/05 11:40:54;;;;;;;4.83;0.70;;;12.90;97.10;;;;;;5082626;28;20194;-71
2021/05/05 11:43:21;;;;;;;4.50;1.07;;;12.80;98.60;;;;;;5081649;28;20226;-71
2021/05/05 11:45:49;;;;;;;3.70;0.70;;;12.60;99.90;;;;;;5080244;28;20206;-71
2021/05/05 11:48:28;;;;;;;1.83;0.70;;;12.50;98.90;;;;;;5081439;28;20255;-71
2021/05/05 11:50:54;;;;;;;5.13;0.73;;;12.40;97.90;;;;;;5080721;28;20187;-71
2021/05/05 11:53:36;;;;;;;2.07;0.70;;;12.60;97.40;;;;;;5080477;28;20238;-71
2021/05/05 11:56:03;;;;;;;3.30;1.00;;;12.60;97.10;;;;;;5080301;28;20655;-71
2021/05/05 11:58:31;;;;;;;1.83;0.60;;;12.60;96.80;;;;;;5079683;28;20207;-71
2021/05/05 12:00:59;;;;;;;4.80;0.80;;;12.80;97.20;;;;;;5080912;28;20199;-71
2021/05/05 12:03:26;;;;;;;1.17;0.60;;;13.00;97.10;;;;;;5081207;28;20238;-70
2021/05/05 12:05:55;;;;;;;1.47;0.60;;;13.10;96.70;;;;;;5079040;28;20195;-70
2021/05/05 12:08:23;;;;;;;1.50;1.03;;;13.10;96.10;;;;;;5078679;28;20521;-70
2021/05/05 12:10:53;;;;;;;4.40;1.60;;;13.20;96.10;;;;;;5082195;28;20204;-71
2021/05/05 12:13:20;;;;;;;5.47;1.57;;;13.20;95.90;;;;;;5080283;28;20238;-71
2021/05/05 12:15:57;;;;;;;1.77;0.70;;;13.50;96.10;;;;;;5078752;28;20199;-71
2021/05/05 12:18:31;;;;;;;1.67;0.80;;;13.70;94.20;;;;;;5075977;28;20226;-71
2021/05/05 12:21:03;;;;;;;2.73;0.80;;;13.50;93.90;;;;;;5081353;28;20201;-71
2021/05/05 12:26:31;;;;;;;8.90;1.73;;;13.50;94.30;;;;;;5071354;28;20199;-72
2021/05/05 12:28:59;;;;;;;3.13;1.13;;;13.50;94.40;;;;;;5081475;28;20243;-72
2021/05/05 12:31:29;;;;;;;3.03;1.30;;;13.00;93.80;;;;;;5080497;28;20202;-73
2021/05/05 12:34:00;;;;;;;3.03;1.20;;;12.60;94.10;;;;;;5083862;28;20241;-73
2021/05/05 12:36:31;;;;;;;3.73;1.20;;;12.50;94.50;;;;;;5080716;28;21037;-73
2021/05/05 12:39:05;;;;;;;2.53;1.13;;;12.30;95.30;;;;;;5081112;28;20591;-73
2021/05/05 12:41:41;;;;;;;1.93;1.00;;;12.30;95.90;;;;;;5079725;28;20194;-72
2021/05/05 12:44:09;;;;;;;2.77;1.00;;;12.20;96.40;;;;;;5078980;28;20190;-72
2021/05/05 12:46:55;;;;;;;2.13;0.90;;;12.20;96.60;;;;;;5067725;28;20215;-73
2021/05/05 12:49:26;;;;;;;8.87;1.37;;;12.30;97.30;;;;;;5070671;28;20211;-73
2021/05/05 12:51:52;;;;;;;3.50;1.27;;;12.40;97.00;;;;;;5073725;28;20219;-73
2021/05/05 12:54:26;;;;;;;4.33;1.73;;;12.30;97.20;;;;;;5078277;28;20203;-73
2021/05/05 12:56:53;;;;;;;3.27;0.97;;;12.30;97.40;;;;;;5075588;28;20294;-73
2021/05/05 12:59:47;;;;;;;1.90;0.90;;;12.40;97.60;;;;;;5086562;28;20200;-74
2021/05/05 13:02:20;;;;;;;3.17;0.83;;;12.30;97.60;;;;;;5088976;28;20206;-74
2021/05/05 13:04:47;;;;;;;3.03;1.00;;;12.40;97.20;;;;;;5080327;28;20223;-73
2021/05/05 13:07:26;;;;;;;2.87;1.07;;;12.60;97.80;;;;;;5072556;28;20195;-73
2021/05/05 13:10:04;;;;;;;2.57;1.10;;;12.90;97.60;;;;;;5072201;28;20253;-73